PWSweather.com
Personal Weather Stations
Station Observations

YeovilGB

Lat: 50.949, Lon: -2.627

Elevation: 70

Station Type: Vantage Pro

http://www.yeovil-weather.me.uk/

High Low Average
Temperature 48.1°F8.9°C 41.1°F5.1°C 44.8°F7.1°C
Dew Point 44.0°F6.7°C 38.0°F3.3°C 40.7°F4.8°C
Winds 10.4 mph 16.7 kmh Calm Calm 4.0 mph SW6.4 kmh SW
Wind Gusts 19.6 mph31.5 kmh -- 9.0 mph14.5 kmh
Humidity 95% 77% 85%
Pressure 29.90 in1012.5 mb 29.39 in995.3 mb -
Precipitation 0.06 in1.5 mm - -
Hour Temp Dew Point Humidity Winds Wind Gusts Pressure Precip Precip Rate Daily Precip Total
12:00 AM 42.9°F6.1°C 40.5°F4.7°C 91% Calm Calm -- 29.54 in1000.3 mb - 0.00 in0.0 mm 0.00 in0.0 mm
12:10 AM 42.9°F6.1°C 40.4°F4.7°C 91% 2.3 mph SW3.7 kmh SW 4.6 mph7.4 kmh 29.55 in1000.7 mb - 0.00 in0.0 mm 0.00 in0.0 mm
12:20 AM 42.8°F6.0°C 40.4°F4.7°C 91% 1.2 mph SW1.9 kmh SW 6.9 mph11.1 kmh 29.55 in1000.7 mb - 0.00 in0.0 mm 0.00 in0.0 mm
12:30 AM 42.9°F6.1°C 40.7°F4.8°C 92% 3.5 mph SW5.6 kmh SW 6.9 mph11.1 kmh 29.55 in1000.7 mb - 0.00 in0.0 mm 0.00 in0.0 mm
12:40 AM 42.8°F6.0°C 40.4°F4.7°C 91% 3.5 mph SSW5.6 kmh SSW 8.1 mph13.0 kmh 29.55 in1000.7 mb - 0.00 in0.0 mm 0.00 in0.0 mm
12:50 AM 42.7°F5.9°C 40.2°F4.6°C 91% Calm Calm -- 29.56 in1001.0 mb - 0.00 in0.0 mm 0.00 in0.0 mm
01:00 AM 42.7°F5.9°C 40.5°F4.7°C 92% 10.4 mph SW16.7 kmh SW 18.4 mph29.6 kmh 29.56 in1001.0 mb - 0.00 in0.0 mm 0.00 in0.0 mm
01:10 AM 43.1°F6.2°C 39.7°F4.3°C 88% 9.2 mph SW14.8 kmh SW 18.4 mph29.6 kmh 29.57 in1001.4 mb - 0.00 in0.0 mm 0.00 in0.0 mm
01:20 AM 42.5°F5.8°C 39.2°F4.0°C 88% 9.2 mph SW14.8 kmh SW 15.0 mph24.1 kmh 29.56 in1001.0 mb - 0.01 in0.3 mm 0.01 in0.3 mm
01:30 AM 42.2°F5.7°C 38.9°F3.8°C 88% 3.5 mph WSW5.6 kmh WSW 5.8 mph9.3 kmh 29.55 in1000.7 mb - 0.00 in0.0 mm 0.01 in0.3 mm
01:40 AM 41.8°F5.4°C 38.5°F3.6°C 88% 4.6 mph SW7.4 kmh SW 9.2 mph14.8 kmh 29.55 in1000.7 mb - 0.00 in0.0 mm 0.01 in0.3 mm
01:50 AM 41.4°F5.2°C 38.1°F3.4°C 88% 2.3 mph SW3.7 kmh SW 2.3 mph3.7 kmh 29.56 in1001.0 mb - 0.00 in0.0 mm 0.01 in0.3 mm
02:00 AM 41.1°F5.1°C 38.1°F3.4°C 89% 5.8 mph SSW9.3 kmh SSW 8.1 mph13.0 kmh 29.56 in1001.0 mb - 0.00 in0.0 mm 0.01 in0.3 mm
02:10 AM 41.3°F5.2°C 38.3°F3.5°C 89% 6.9 mph SW11.1 kmh SW 11.5 mph18.5 kmh 29.56 in1001.0 mb - 0.00 in0.0 mm 0.01 in0.3 mm
02:20 AM 41.3°F5.2°C 38.3°F3.5°C 89% 4.6 mph SW7.4 kmh SW 11.5 mph18.5 kmh 29.56 in1001.0 mb - 0.00 in0.0 mm 0.01 in0.3 mm
02:30 AM 41.3°F5.2°C 38.3°F3.5°C 89% 2.3 mph SW3.7 kmh SW 3.5 mph5.6 kmh 29.55 in1000.7 mb - 0.00 in0.0 mm 0.01 in0.3 mm
02:40 AM 41.3°F5.2°C 38.3°F3.5°C 89% 5.8 mph SSW9.3 kmh SSW 8.1 mph13.0 kmh 29.56 in1001.0 mb - 0.00 in0.0 mm 0.01 in0.3 mm
02:50 AM 41.2°F5.1°C 38.2°F3.4°C 89% 1.2 mph S1.9 kmh S 3.5 mph5.6 kmh 29.56 in1001.0 mb - 0.00 in0.0 mm 0.01 in0.3 mm
03:00 AM 41.1°F5.1°C 38.3°F3.5°C 90% Calm Calm -- 29.55 in1000.7 mb - 0.00 in0.0 mm 0.01 in0.3 mm
03:10 AM 41.1°F5.1°C 38.4°F3.6°C 90% 3.5 mph SW5.6 kmh SW 11.5 mph18.5 kmh 29.55 in1000.7 mb - 0.00 in0.0 mm 0.01 in0.3 mm
03:20 AM 41.3°F5.2°C 38.6°F3.7°C 90% 3.5 mph SSW5.6 kmh SSW 10.4 mph16.7 kmh 29.54 in1000.3 mb - 0.00 in0.0 mm 0.01 in0.3 mm
03:30 AM 41.5°F5.3°C 38.8°F3.8°C 90% 8.1 mph SW13.0 kmh SW 11.5 mph18.5 kmh 29.54 in1000.3 mb - 0.00 in0.0 mm 0.01 in0.3 mm
03:40 AM 41.9°F5.5°C 38.9°F3.8°C 89% 6.9 mph SSW11.1 kmh SSW 11.5 mph18.5 kmh 29.54 in1000.3 mb - 0.00 in0.0 mm 0.01 in0.3 mm
03:50 AM 42.0°F5.6°C 39.0°F3.9°C 89% 6.9 mph SW11.1 kmh SW 19.6 mph31.5 kmh 29.53 in1000.0 mb - 0.00 in0.0 mm 0.01 in0.3 mm
04:00 AM 42.4°F5.8°C 39.4°F4.1°C 89% 5.8 mph SSW9.3 kmh SSW 11.5 mph18.5 kmh 29.54 in1000.3 mb - 0.00 in0.0 mm 0.01 in0.3 mm
04:10 AM 42.5°F5.8°C 39.2°F4.0°C 88% 8.1 mph SSW13.0 kmh SSW 18.4 mph29.6 kmh 29.53 in1000.0 mb - 0.00 in0.0 mm 0.01 in0.3 mm
04:20 AM 42.6°F5.9°C 39.0°F3.9°C 87% 5.8 mph SW9.3 kmh SW 9.2 mph14.8 kmh 29.52 in999.7 mb - 0.00 in0.0 mm 0.01 in0.3 mm
04:30 AM 42.5°F5.8°C 38.9°F3.8°C 87% 8.1 mph SW13.0 kmh SW 12.7 mph20.4 kmh 29.52 in999.7 mb - 0.00 in0.0 mm 0.01 in0.3 mm
04:40 AM 42.5°F5.8°C 39.2°F4.0°C 88% 2.3 mph SW3.7 kmh SW 5.8 mph9.3 kmh 29.51 in999.3 mb - 0.00 in0.0 mm 0.01 in0.3 mm
04:50 AM 42.5°F5.8°C 39.2°F4.0°C 88% 5.8 mph S9.3 kmh S 10.4 mph16.7 kmh 29.52 in999.7 mb - 0.00 in0.0 mm 0.01 in0.3 mm
05:00 AM 42.5°F5.8°C 39.2°F4.0°C 88% 2.3 mph S3.7 kmh S 10.4 mph16.7 kmh 29.51 in999.3 mb - 0.00 in0.0 mm 0.01 in0.3 mm
05:10 AM 42.5°F5.8°C 39.2°F4.0°C 88% 4.6 mph SSW7.4 kmh SSW 8.1 mph13.0 kmh 29.50 in999.0 mb - 0.00 in0.0 mm 0.01 in0.3 mm
05:20 AM 42.7°F5.9°C 39.1°F3.9°C 87% 3.5 mph SSW5.6 kmh SSW 10.4 mph16.7 kmh 29.49 in998.6 mb - 0.00 in0.0 mm 0.01 in0.3 mm
05:30 AM 42.8°F6.0°C 39.5°F4.2°C 88% 3.5 mph SSW5.6 kmh SSW 8.1 mph13.0 kmh 29.49 in998.6 mb - 0.00 in0.0 mm 0.01 in0.3 mm
05:40 AM 43.0°F6.1°C 39.7°F4.3°C 88% 4.6 mph SSW7.4 kmh SSW 9.2 mph14.8 kmh 29.48 in998.3 mb - 0.00 in0.0 mm 0.01 in0.3 mm
05:50 AM 43.2°F6.2°C 39.9°F4.4°C 88% 3.5 mph SW5.6 kmh SW 5.8 mph9.3 kmh 29.47 in998.0 mb - 0.00 in0.0 mm 0.01 in0.3 mm
06:00 AM 43.5°F6.4°C 40.2°F4.6°C 88% 3.5 mph SSW5.6 kmh SSW 9.2 mph14.8 kmh 29.46 in997.6 mb - 0.00 in0.0 mm 0.01 in0.3 mm
06:10 AM 44.0°F6.7°C 40.7°F4.8°C 88% 5.8 mph SSW9.3 kmh SSW 9.2 mph14.8 kmh 29.46 in997.6 mb - 0.00 in0.0 mm 0.01 in0.3 mm
06:20 AM 44.3°F6.8°C 40.7°F4.8°C 87% 6.9 mph SSW11.1 kmh SSW 11.5 mph18.5 kmh 29.45 in997.3 mb - 0.00 in0.0 mm 0.01 in0.3 mm
06:30 AM 44.5°F6.9°C 40.9°F4.9°C 87% 5.8 mph S9.3 kmh S 10.4 mph16.7 kmh 29.44 in997.0 mb - 0.00 in0.0 mm 0.01 in0.3 mm
06:40 AM 44.7°F7.1°C 41.1°F5.1°C 87% 5.8 mph SSW9.3 kmh SSW 8.1 mph13.0 kmh 29.43 in996.6 mb - 0.00 in0.0 mm 0.01 in0.3 mm
06:50 AM 44.9°F7.2°C 41.3°F5.2°C 87% 2.3 mph S3.7 kmh S 6.9 mph11.1 kmh 29.43 in996.6 mb - 0.00 in0.0 mm 0.01 in0.3 mm
07:00 AM 45.1°F7.3°C 41.5°F5.3°C 87% 5.8 mph S9.3 kmh S 10.4 mph16.7 kmh 29.42 in996.3 mb - 0.00 in0.0 mm 0.01 in0.3 mm
07:10 AM 45.4°F7.4°C 42.0°F5.6°C 88% 3.5 mph S5.6 kmh S 8.1 mph13.0 kmh 29.41 in995.9 mb - 0.00 in0.0 mm 0.01 in0.3 mm
07:20 AM 45.5°F7.5°C 42.2°F5.7°C 88% 4.6 mph S7.4 kmh S 8.1 mph13.0 kmh 29.40 in995.6 mb - 0.00 in0.0 mm 0.01 in0.3 mm
07:30 AM 45.5°F7.5°C 42.2°F5.7°C 88% Calm Calm -- 29.40 in995.6 mb - 0.00 in0.0 mm 0.01 in0.3 mm
07:40 AM 45.2°F7.3°C 41.9°F5.5°C 88% Calm Calm -- 29.40 in995.6 mb - 0.00 in0.0 mm 0.01 in0.3 mm
07:50 AM 44.9°F7.2°C 41.6°F5.3°C 88% Calm Calm -- 29.39 in995.3 mb - 0.00 in0.0 mm 0.01 in0.3 mm
08:00 AM 44.7°F7.1°C 41.7°F5.4°C 89% Calm Calm -- 29.39 in995.3 mb - 0.00 in0.0 mm 0.01 in0.3 mm
08:10 AM 44.7°F7.1°C 41.9°F5.5°C 90% Calm Calm -- 29.39 in995.3 mb - 0.00 in0.0 mm 0.01 in0.3 mm
08:20 AM 44.8°F7.1°C 42.1°F5.6°C 90% 4.6 mph S7.4 kmh S 12.7 mph20.4 kmh 29.39 in995.3 mb - 0.01 in0.3 mm 0.02 in0.5 mm
08:30 AM 45.4°F7.4°C 43.2°F6.2°C 92% 4.6 mph SSW7.4 kmh SSW 8.1 mph13.0 kmh 29.39 in995.3 mb - 0.02 in0.5 mm 0.03 in0.8 mm
08:40 AM 45.5°F7.5°C 43.3°F6.3°C 92% 5.8 mph SSW9.3 kmh SSW 11.5 mph18.5 kmh 29.39 in995.3 mb - 0.00 in0.0 mm 0.03 in0.8 mm
08:50 AM 45.3°F7.4°C 43.1°F6.2°C 92% 5.8 mph SW9.3 kmh SW 10.4 mph16.7 kmh 29.39 in995.3 mb - 0.00 in0.0 mm 0.03 in0.8 mm
09:00 AM 45.1°F7.3°C 42.9°F6.1°C 92% 3.5 mph SW5.6 kmh SW 8.1 mph13.0 kmh 29.39 in995.3 mb - 0.01 in0.3 mm 0.04 in1.0 mm
09:10 AM 44.9°F7.2°C 43.0°F6.1°C 93% 6.9 mph SSW11.1 kmh SSW 11.5 mph18.5 kmh 29.39 in995.3 mb - 0.00 in0.0 mm 0.04 in1.0 mm
09:20 AM 44.7°F7.1°C 42.8°F6.0°C 93% 3.5 mph SSW5.6 kmh SSW 8.1 mph13.0 kmh 29.39 in995.3 mb - 0.00 in0.0 mm 0.04 in1.0 mm
09:30 AM 44.6°F7.0°C 42.7°F5.9°C 93% 4.6 mph SSW7.4 kmh SSW 9.2 mph14.8 kmh 29.39 in995.3 mb - 0.00 in0.0 mm 0.04 in1.0 mm
09:40 AM 44.5°F6.9°C 42.9°F6.1°C 94% 3.5 mph S5.6 kmh S 4.6 mph7.4 kmh 29.39 in995.3 mb - 0.00 in0.0 mm 0.04 in1.0 mm
09:50 AM 44.4°F6.9°C 42.8°F6.0°C 94% 2.3 mph SW3.7 kmh SW 4.6 mph7.4 kmh 29.39 in995.3 mb - 0.00 in0.0 mm 0.04 in1.0 mm
10:00 AM 44.3°F6.8°C 42.7°F5.9°C 94% 1.2 mph SW1.9 kmh SW 6.9 mph11.1 kmh 29.39 in995.3 mb - 0.01 in0.3 mm 0.05 in1.3 mm
10:10 AM 44.4°F6.9°C 42.8°F6.0°C 94% 5.8 mph SSW9.3 kmh SSW 8.1 mph13.0 kmh 29.41 in995.9 mb - 0.00 in0.0 mm 0.05 in1.3 mm
10:20 AM 44.4°F6.9°C 42.8°F6.0°C 94% 2.3 mph SW3.7 kmh SW 6.9 mph11.1 kmh 29.41 in995.9 mb - 0.00 in0.0 mm 0.05 in1.3 mm
10:30 AM 44.5°F6.9°C 42.9°F6.1°C 94% 3.5 mph SSW5.6 kmh SSW 5.8 mph9.3 kmh 29.42 in996.3 mb - 0.00 in0.0 mm 0.05 in1.3 mm
10:40 AM 44.5°F6.9°C 43.1°F6.2°C 95% 1.2 mph SW1.9 kmh SW 6.9 mph11.1 kmh 29.42 in996.3 mb - 0.00 in0.0 mm 0.05 in1.3 mm
10:50 AM 44.3°F6.8°C 42.7°F5.9°C 94% 2.3 mph WSW3.7 kmh WSW -- 29.43 in996.6 mb - 0.00 in0.0 mm 0.05 in1.3 mm
11:00 AM 44.2°F6.8°C 42.6°F5.9°C 94% Calm Calm -- 29.43 in996.6 mb - 0.00 in0.0 mm 0.05 in1.3 mm
11:10 AM 44.2°F6.8°C 42.3°F5.7°C 93% Calm Calm -- 29.43 in996.6 mb - 0.00 in0.0 mm 0.05 in1.3 mm
11:20 AM 44.3°F6.8°C 42.4°F5.8°C 93% Calm Calm -- 29.44 in997.0 mb - 0.00 in0.0 mm 0.05 in1.3 mm
11:30 AM 44.5°F6.9°C 42.6°F5.9°C 93% Calm Calm 2.3 mph3.7 kmh 29.45 in997.3 mb - 0.00 in0.0 mm 0.05 in1.3 mm
11:40 AM 44.7°F7.1°C 42.8°F6.0°C 93% Calm Calm -- 29.45 in997.3 mb - 0.00 in0.0 mm 0.05 in1.3 mm
11:50 AM 45.1°F7.3°C 43.2°F6.2°C 93% 1.2 mph WSW1.9 kmh WSW 5.8 mph9.3 kmh 29.45 in997.3 mb - 0.00 in0.0 mm 0.05 in1.3 mm
12:00 PM 45.4°F7.4°C 43.2°F6.2°C 92% 5.8 mph SW9.3 kmh SW 10.4 mph16.7 kmh 29.46 in997.6 mb - 0.00 in0.0 mm 0.05 in1.3 mm
12:10 PM 45.4°F7.4°C 42.9°F6.1°C 91% Calm Calm 4.6 mph7.4 kmh 29.47 in998.0 mb - 0.00 in0.0 mm 0.05 in1.3 mm
12:20 PM 45.2°F7.3°C 42.4°F5.8°C 90% Calm Calm 2.3 mph3.7 kmh 29.47 in998.0 mb - 0.00 in0.0 mm 0.05 in1.3 mm
12:30 PM 45.3°F7.4°C 43.1°F6.2°C 92% 2.3 mph SW3.7 kmh SW 8.1 mph13.0 kmh 29.47 in998.0 mb - 0.00 in0.0 mm 0.05 in1.3 mm
12:40 PM 45.8°F7.7°C 43.6°F6.4°C 92% Calm Calm 1.2 mph1.9 kmh 29.48 in998.3 mb - 0.00 in0.0 mm 0.05 in1.3 mm
12:50 PM 46.5°F8.1°C 44.0°F6.7°C 91% 3.5 mph W5.6 kmh W 9.2 mph14.8 kmh 29.48 in998.3 mb - 0.00 in0.0 mm 0.05 in1.3 mm
01:00 PM 47.0°F8.3°C 43.9°F6.6°C 89% 1.2 mph WNW1.9 kmh WNW 5.8 mph9.3 kmh 29.49 in998.6 mb - 0.00 in0.0 mm 0.05 in1.3 mm
01:10 PM 47.2°F8.4°C 43.5°F6.4°C 87% 2.3 mph SW3.7 kmh SW 3.5 mph5.6 kmh 29.49 in998.6 mb - 0.00 in0.0 mm 0.05 in1.3 mm
01:20 PM 47.3°F8.5°C 43.0°F6.1°C 85% 6.9 mph WSW11.1 kmh WSW 11.5 mph18.5 kmh 29.50 in999.0 mb - 0.00 in0.0 mm 0.05 in1.3 mm
01:30 PM 47.3°F8.5°C 42.4°F5.8°C 83% 6.9 mph NW11.1 kmh NW 13.8 mph22.2 kmh 29.50 in999.0 mb - 0.00 in0.0 mm 0.05 in1.3 mm
01:40 PM 47.5°F8.6°C 42.6°F5.9°C 83% 3.5 mph W5.6 kmh W 18.4 mph29.6 kmh 29.50 in999.0 mb - 0.00 in0.0 mm 0.05 in1.3 mm
01:50 PM 47.8°F8.8°C 42.5°F5.8°C 82% 6.9 mph W11.1 kmh W 18.4 mph29.6 kmh 29.50 in999.0 mb - 0.01 in0.3 mm 0.06 in1.5 mm
02:00 PM 48.0°F8.9°C 42.5°F5.8°C 81% 6.9 mph WSW11.1 kmh WSW 18.4 mph29.6 kmh 29.51 in999.3 mb - 0.01 in0.3 mm 0.06 in1.5 mm
02:10 PM 48.1°F8.9°C 41.9°F5.5°C 79% 3.5 mph NW5.6 kmh NW 9.2 mph14.8 kmh 29.52 in999.7 mb - 0.00 in0.0 mm 0.06 in1.5 mm
02:20 PM 48.1°F8.9°C 41.9°F5.5°C 79% 6.9 mph WSW11.1 kmh WSW 11.5 mph18.5 kmh 29.52 in999.7 mb - 0.00 in0.0 mm 0.06 in1.5 mm
02:30 PM 47.9°F8.8°C 41.3°F5.2°C 78% 1.2 mph W1.9 kmh W 8.1 mph13.0 kmh 29.53 in1000.0 mb - 0.00 in0.0 mm 0.06 in1.5 mm
02:40 PM 47.7°F8.7°C 41.5°F5.3°C 79% 6.9 mph WSW11.1 kmh WSW 19.6 mph31.5 kmh 29.54 in1000.3 mb - 0.00 in0.0 mm 0.06 in1.5 mm
02:50 PM 47.5°F8.6°C 41.3°F5.2°C 79% 5.8 mph WSW9.3 kmh WSW 19.6 mph31.5 kmh 29.54 in1000.3 mb - 0.00 in0.0 mm 0.06 in1.5 mm
03:00 PM 47.3°F8.5°C 41.1°F5.1°C 79% 4.6 mph W7.4 kmh W 6.9 mph11.1 kmh 29.55 in1000.7 mb - 0.00 in0.0 mm 0.06 in1.5 mm
03:10 PM 47.4°F8.6°C 41.5°F5.3°C 80% 8.1 mph W13.0 kmh W 11.5 mph18.5 kmh 29.55 in1000.7 mb - 0.00 in0.0 mm 0.06 in1.5 mm
03:20 PM 47.5°F8.6°C 41.4°F5.2°C 79% 4.6 mph WNW7.4 kmh WNW 10.4 mph16.7 kmh 29.57 in1001.4 mb - 0.00 in0.0 mm 0.06 in1.5 mm
03:30 PM 47.7°F8.7°C 41.5°F5.3°C 79% 5.8 mph WSW9.3 kmh WSW 11.5 mph18.5 kmh 29.58 in1001.7 mb - 0.00 in0.0 mm 0.06 in1.5 mm
03:40 PM 47.6°F8.7°C 41.5°F5.3°C 79% 4.6 mph WSW7.4 kmh WSW 9.2 mph14.8 kmh 29.59 in1002.0 mb - 0.00 in0.0 mm 0.06 in1.5 mm
03:50 PM 47.3°F8.5°C 41.1°F5.1°C 79% 4.6 mph W7.4 kmh W 6.9 mph11.1 kmh 29.60 in1002.4 mb - 0.00 in0.0 mm 0.06 in1.5 mm
04:00 PM 47.1°F8.4°C 41.2°F5.1°C 80% 5.8 mph WSW9.3 kmh WSW 15.0 mph24.1 kmh 29.61 in1002.7 mb - 0.00 in0.0 mm 0.06 in1.5 mm
04:10 PM 47.0°F8.3°C 41.2°F5.1°C 80% 6.9 mph SW11.1 kmh SW 16.1 mph25.9 kmh 29.62 in1003.0 mb - 0.00 in0.0 mm 0.06 in1.5 mm
04:20 PM 47.0°F8.3°C 40.8°F4.9°C 79% 5.8 mph SW9.3 kmh SW 12.7 mph20.4 kmh 29.62 in1003.0 mb - 0.00 in0.0 mm 0.06 in1.5 mm
04:30 PM 46.8°F8.2°C 40.6°F4.8°C 79% 3.5 mph SW5.6 kmh SW 8.1 mph13.0 kmh 29.62 in1003.0 mb - 0.00 in0.0 mm 0.06 in1.5 mm
04:40 PM 46.6°F8.1°C 40.4°F4.7°C 79% 9.2 mph SW14.8 kmh SW 11.5 mph18.5 kmh 29.63 in1003.4 mb - 0.00 in0.0 mm 0.06 in1.5 mm
04:50 PM 46.5°F8.1°C 40.7°F4.8°C 80% 6.9 mph WSW11.1 kmh WSW 18.4 mph29.6 kmh 29.64 in1003.7 mb - 0.00 in0.0 mm 0.06 in1.5 mm
05:00 PM 46.5°F8.1°C 40.7°F4.8°C 80% 5.8 mph SW9.3 kmh SW 15.0 mph24.1 kmh 29.65 in1004.1 mb - 0.00 in0.0 mm 0.06 in1.5 mm
05:10 PM 46.5°F8.1°C 40.7°F4.8°C 80% 9.2 mph SW14.8 kmh SW 12.7 mph20.4 kmh 29.66 in1004.4 mb - 0.00 in0.0 mm 0.06 in1.5 mm
05:20 PM 46.5°F8.1°C 40.6°F4.8°C 80% 8.1 mph SW13.0 kmh SW 11.5 mph18.5 kmh 29.67 in1004.7 mb - 0.00 in0.0 mm 0.06 in1.5 mm
05:30 PM 46.4°F8.0°C 40.9°F4.9°C 81% 5.8 mph WSW9.3 kmh WSW 12.7 mph20.4 kmh 29.68 in1005.1 mb - 0.00 in0.0 mm 0.06 in1.5 mm
05:40 PM 46.3°F7.9°C 41.1°F5.1°C 82% 5.8 mph SW9.3 kmh SW 15.0 mph24.1 kmh 29.69 in1005.4 mb - 0.00 in0.0 mm 0.06 in1.5 mm
05:50 PM 46.2°F7.9°C 40.4°F4.7°C 80% 6.9 mph W11.1 kmh W 11.5 mph18.5 kmh 29.69 in1005.4 mb - 0.00 in0.0 mm 0.06 in1.5 mm
06:00 PM 46.2°F7.9°C 39.7°F4.3°C 78% 5.8 mph WSW9.3 kmh WSW 13.8 mph22.2 kmh 29.69 in1005.4 mb - 0.00 in0.0 mm 0.06 in1.5 mm
06:10 PM 46.3°F7.9°C 39.8°F4.3°C 78% 6.9 mph SW11.1 kmh SW 11.5 mph18.5 kmh 29.70 in1005.8 mb - 0.00 in0.0 mm 0.06 in1.5 mm
06:20 PM 46.3°F7.9°C 39.8°F4.3°C 78% 5.8 mph SW9.3 kmh SW 6.9 mph11.1 kmh 29.70 in1005.8 mb - 0.00 in0.0 mm 0.06 in1.5 mm
06:30 PM 46.3°F7.9°C 39.8°F4.3°C 78% 8.1 mph SW13.0 kmh SW 10.4 mph16.7 kmh 29.71 in1006.1 mb - 0.00 in0.0 mm 0.06 in1.5 mm
06:40 PM 46.3°F7.9°C 39.8°F4.3°C 78% 9.2 mph WSW14.8 kmh WSW 12.7 mph20.4 kmh 29.72 in1006.4 mb - 0.00 in0.0 mm 0.06 in1.5 mm
06:50 PM 46.3°F7.9°C 39.5°F4.2°C 77% 10.4 mph SW16.7 kmh SW 19.6 mph31.5 kmh 29.73 in1006.8 mb - 0.00 in0.0 mm 0.06 in1.5 mm
07:00 PM 46.3°F7.9°C 39.5°F4.2°C 77% 6.9 mph SW11.1 kmh SW 12.7 mph20.4 kmh 29.74 in1007.1 mb - 0.00 in0.0 mm 0.06 in1.5 mm
07:10 PM 46.2°F7.9°C 39.4°F4.1°C 77% 6.9 mph SW11.1 kmh SW 12.7 mph20.4 kmh 29.74 in1007.1 mb - 0.00 in0.0 mm 0.06 in1.5 mm
07:20 PM 46.2°F7.9°C 39.7°F4.3°C 78% 10.4 mph SW16.7 kmh SW 11.5 mph18.5 kmh 29.75 in1007.5 mb - 0.00 in0.0 mm 0.06 in1.5 mm
07:30 PM 46.2°F7.9°C 39.4°F4.1°C 77% 6.9 mph WSW11.1 kmh WSW 11.5 mph18.5 kmh 29.76 in1007.8 mb - 0.00 in0.0 mm 0.06 in1.5 mm
07:40 PM 46.2°F7.9°C 39.4°F4.1°C 77% 5.8 mph W9.3 kmh W 9.2 mph14.8 kmh 29.77 in1008.1 mb - 0.00 in0.0 mm 0.06 in1.5 mm
07:50 PM 46.1°F7.8°C 39.6°F4.2°C 78% 1.2 mph SW1.9 kmh SW 5.8 mph9.3 kmh 29.78 in1008.5 mb - 0.00 in0.0 mm 0.06 in1.5 mm
08:00 PM 46.0°F7.8°C 39.5°F4.2°C 78% 6.9 mph SW11.1 kmh SW 11.5 mph18.5 kmh 29.79 in1008.8 mb - 0.00 in0.0 mm 0.06 in1.5 mm
08:20 PM 45.9°F7.7°C 39.8°F4.3°C 79% 5.8 mph WSW9.3 kmh WSW 9.2 mph14.8 kmh 29.80 in1009.1 mb - 0.00 in0.0 mm 0.06 in1.5 mm
08:30 PM 45.8°F7.7°C 39.7°F4.3°C 79% 3.5 mph WSW5.6 kmh WSW 9.2 mph14.8 kmh 29.80 in1009.1 mb - 0.00 in0.0 mm 0.06 in1.5 mm
08:40 PM 45.7°F7.6°C 39.6°F4.2°C 79% 2.3 mph WSW3.7 kmh WSW 6.9 mph11.1 kmh 29.81 in1009.5 mb - 0.00 in0.0 mm 0.06 in1.5 mm
08:50 PM 45.8°F7.7°C 39.6°F4.2°C 79% 5.8 mph SW9.3 kmh SW 11.5 mph18.5 kmh 29.81 in1009.5 mb - 0.00 in0.0 mm 0.06 in1.5 mm
09:00 PM 46.1°F7.8°C 39.9°F4.4°C 79% 1.2 mph SW1.9 kmh SW 13.8 mph22.2 kmh 29.82 in1009.8 mb - 0.00 in0.0 mm 0.06 in1.5 mm
09:10 PM 46.0°F7.8°C 39.9°F4.4°C 79% 4.6 mph SW7.4 kmh SW 11.5 mph18.5 kmh 29.82 in1009.8 mb - 0.00 in0.0 mm 0.06 in1.5 mm
09:20 PM 45.9°F7.7°C 39.8°F4.3°C 79% 6.9 mph SW11.1 kmh SW 10.4 mph16.7 kmh 29.83 in1010.2 mb - 0.00 in0.0 mm 0.06 in1.5 mm
09:30 PM 45.6°F7.6°C 39.8°F4.3°C 80% 3.5 mph SW5.6 kmh SW 11.5 mph18.5 kmh 29.83 in1010.2 mb - 0.00 in0.0 mm 0.06 in1.5 mm
09:40 PM 45.5°F7.5°C 39.7°F4.3°C 80% 3.5 mph SW5.6 kmh SW 11.5 mph18.5 kmh 29.83 in1010.2 mb - 0.00 in0.0 mm 0.06 in1.5 mm
09:50 PM 45.4°F7.4°C 39.6°F4.2°C 80% 8.1 mph WSW13.0 kmh WSW 11.5 mph18.5 kmh 29.84 in1010.5 mb - 0.00 in0.0 mm 0.06 in1.5 mm
10:00 PM 45.3°F7.4°C 39.5°F4.2°C 80% 5.8 mph WSW9.3 kmh WSW 11.5 mph18.5 kmh 29.84 in1010.5 mb - 0.00 in0.0 mm 0.06 in1.5 mm
10:10 PM 45.2°F7.3°C 39.1°F3.9°C 79% 8.1 mph SW13.0 kmh SW 12.7 mph20.4 kmh 29.85 in1010.8 mb - 0.00 in0.0 mm 0.06 in1.5 mm
10:20 PM 45.1°F7.3°C 39.0°F3.9°C 79% 6.9 mph WSW11.1 kmh WSW 10.4 mph16.7 kmh 29.85 in1010.8 mb - 0.00 in0.0 mm 0.06 in1.5 mm
10:30 PM 44.9°F7.2°C 39.1°F3.9°C 80% 4.6 mph WSW7.4 kmh WSW 10.4 mph16.7 kmh 29.86 in1011.2 mb - 0.00 in0.0 mm 0.06 in1.5 mm
10:40 PM 44.7°F7.1°C 38.9°F3.8°C 80% 2.3 mph WSW3.7 kmh WSW 8.1 mph13.0 kmh 29.86 in1011.2 mb - 0.00 in0.0 mm 0.06 in1.5 mm
10:50 PM 44.5°F6.9°C 38.7°F3.7°C 80% Calm Calm -- 29.87 in1011.5 mb - 0.00 in0.0 mm 0.06 in1.5 mm
11:00 PM 44.3°F6.8°C 38.5°F3.6°C 80% 2.3 mph SW3.7 kmh SW 2.3 mph3.7 kmh 29.88 in1011.9 mb - 0.00 in0.0 mm 0.06 in1.5 mm
11:10 PM 44.0°F6.7°C 38.6°F3.7°C 81% 2.3 mph SW3.7 kmh SW 8.1 mph13.0 kmh 29.88 in1011.9 mb - 0.00 in0.0 mm 0.06 in1.5 mm
11:20 PM 43.8°F6.6°C 38.3°F3.5°C 81% Calm Calm -- 29.89 in1012.2 mb - 0.00 in0.0 mm 0.06 in1.5 mm
11:30 PM 43.4°F6.3°C 38.3°F3.5°C 82% 1.2 mph SW1.9 kmh SW 4.6 mph7.4 kmh 29.89 in1012.2 mb - 0.00 in0.0 mm 0.06 in1.5 mm
11:40 PM 43.3°F6.3°C 38.2°F3.4°C 82% 1.2 mph SW1.9 kmh SW 5.8 mph9.3 kmh 29.89 in1012.2 mb - 0.00 in0.0 mm 0.06 in1.5 mm
11:50 PM 43.1°F6.2°C 38.0°F3.3°C 82% Calm Calm -- 29.90 in1012.5 mb - 0.00 in0.0 mm 0.06 in1.5 mm